createdAt,value
2018-12-21T00:00:22.269Z,8.06
2018-12-21T00:02:50.680Z,7.88
2018-12-21T00:05:19.059Z,8.04
2018-12-21T00:07:47.439Z,8.09
2018-12-21T00:10:15.839Z,8.10
2018-12-21T00:12:44.260Z,8.06
2018-12-21T00:15:12.631Z,8.20
2018-12-21T00:17:41.229Z,8.38
2018-12-21T00:20:10.581Z,8.42
2018-12-21T00:22:39.078Z,8.49
2018-12-21T00:25:07.505Z,8.49
2018-12-21T00:27:35.888Z,8.51
2018-12-21T00:30:05.125Z,8.49
2018-12-21T00:32:38.759Z,8.47
2018-12-21T00:35:12.479Z,8.48
2018-12-21T00:37:46.108Z,8.53
2018-12-21T00:40:19.871Z,8.62
2018-12-21T00:42:57.414Z,8.51
2018-12-21T00:45:29.951Z,8.59
2018-12-21T00:47:58.582Z,8.57
2018-12-21T00:50:26.987Z,8.59
2018-12-21T00:52:55.364Z,8.57
2018-12-21T00:55:23.885Z,8.50
2018-12-21T00:57:52.463Z,8.45
2018-12-21T01:00:25.420Z,8.55
2018-12-21T01:02:53.850Z,8.54
2018-12-21T01:05:22.582Z,8.62
2018-12-21T01:07:51.079Z,8.60
2018-12-21T01:10:19.633Z,8.64
2018-12-21T01:12:48.003Z,8.75
2018-12-21T01:15:16.396Z,8.74
2018-12-21T01:17:44.815Z,8.76
2018-12-21T01:20:13.497Z,8.75
2018-12-21T01:22:42.296Z,8.78
2018-12-21T01:25:10.785Z,8.74
2018-12-21T01:27:39.279Z,8.74
2018-12-21T01:30:08.375Z,8.72
2018-12-21T01:32:36.753Z,8.72
2018-12-21T01:35:05.614Z,8.66
2018-12-21T01:37:34.095Z,8.56
2018-12-21T01:40:02.513Z,8.68
2018-12-21T01:42:30.891Z,8.61
2018-12-21T01:44:59.311Z,8.59
2018-12-21T01:47:27.737Z,8.59
2018-12-21T01:49:56.163Z,8.62
2018-12-21T01:52:24.571Z,8.69
2018-12-21T01:54:52.976Z,8.70
2018-12-21T01:57:21.347Z,8.70
2018-12-21T01:59:49.783Z,8.69
2018-12-21T02:02:18.371Z,8.61
2018-12-21T02:04:46.756Z,8.62
2018-12-21T02:07:15.126Z,8.57
2018-12-21T02:09:43.588Z,8.57
2018-12-21T02:12:11.966Z,8.59
2018-12-21T02:14:40.398Z,8.60
2018-12-21T02:17:08.841Z,8.61
2018-12-21T02:19:37.282Z,8.60
2018-12-21T02:22:05.674Z,8.69
2018-12-21T02:24:34.076Z,8.74
2018-12-21T02:27:02.604Z,8.67
2018-12-21T02:29:31.046Z,8.69
2018-12-21T02:31:59.532Z,8.72
2018-12-21T02:34:27.936Z,8.73
2018-12-21T02:36:56.320Z,8.80
2018-12-21T02:39:24.707Z,8.84
2018-12-21T02:41:53.127Z,8.81
2018-12-21T02:44:21.642Z,8.87
2018-12-21T02:46:50.011Z,8.80
2018-12-21T02:49:18.407Z,8.83
2018-12-21T02:51:46.829Z,8.84
2018-12-21T02:54:15.367Z,8.74
2018-12-21T02:56:43.755Z,8.73
2018-12-21T02:59:12.121Z,8.72
2018-12-21T03:01:40.694Z,8.72
2018-12-21T03:04:09.049Z,8.70
2018-12-21T03:06:37.458Z,8.78
2018-12-21T03:09:09.958Z,8.69
2018-12-21T03:11:38.586Z,8.71
2018-12-21T03:14:07.083Z,8.73
2018-12-21T03:16:35.795Z,8.66
2018-12-21T03:19:04.300Z,8.57
2018-12-21T03:21:32.715Z,8.54
2018-12-21T03:24:01.086Z,8.69
2018-12-21T03:26:29.550Z,8.53
2018-12-21T03:28:57.911Z,8.57
2018-12-21T03:31:26.356Z,8.62
2018-12-21T03:33:54.818Z,8.63
2018-12-21T03:36:23.285Z,8.56
2018-12-21T03:38:51.687Z,8.50
2018-12-21T03:41:20.100Z,8.36
2018-12-21T03:43:48.497Z,8.48
2018-12-21T03:46:16.980Z,8.70
2018-12-21T03:48:45.340Z,8.67
2018-12-21T03:51:13.801Z,8.56
2018-12-21T03:53:42.197Z,8.70
2018-12-21T03:56:10.606Z,8.65
2018-12-21T03:58:39.010Z,8.70
2018-12-21T04:01:07.431Z,8.61
2018-12-21T04:03:35.824Z,8.69
2018-12-21T04:06:04.232Z,8.63
2018-12-21T04:08:32.642Z,8.59
2018-12-21T04:11:01.215Z,8.84
2018-12-21T04:13:29.640Z,8.90
2018-12-21T04:15:58.045Z,8.94
2018-12-21T04:18:26.443Z,8.83
2018-12-21T04:20:55.293Z,8.98
2018-12-21T04:23:23.692Z,8.86
2018-12-21T04:25:52.425Z,8.88
2018-12-21T04:28:21.065Z,8.87
2018-12-21T04:30:49.483Z,8.89
2018-12-21T04:33:17.906Z,8.94
2018-12-21T04:35:46.333Z,8.94
2018-12-21T04:38:14.760Z,8.93
2018-12-21T04:40:43.277Z,8.90
2018-12-21T04:43:12.722Z,8.87
2018-12-21T04:45:41.163Z,8.83
2018-12-21T04:48:09.565Z,8.77
2018-12-21T04:50:37.964Z,8.65
2018-12-21T04:53:06.370Z,8.54
2018-12-21T04:55:34.811Z,8.46
2018-12-21T04:58:03.250Z,8.49
2018-12-21T05:00:31.646Z,8.52
2018-12-21T05:03:00.213Z,8.47
2018-12-21T05:05:28.614Z,8.47
2018-12-21T05:07:57.003Z,8.43
2018-12-21T05:10:25.384Z,8.42
2018-12-21T05:12:53.780Z,8.40
2018-12-21T05:15:22.242Z,8.35
2018-12-21T05:17:50.663Z,8.32
2018-12-21T05:20:19.076Z,8.26
2018-12-21T05:22:52.176Z,8.25
2018-12-21T05:25:17.881Z,8.25
2018-12-21T05:27:46.391Z,8.26
2018-12-21T05:30:14.986Z,8.25
2018-12-21T05:32:43.399Z,8.31
2018-12-21T05:35:11.784Z,8.32
2018-12-21T05:37:40.205Z,8.35
2018-12-21T05:40:09.898Z,8.49
2018-12-21T05:42:38.427Z,8.48
2018-12-21T05:45:07.079Z,8.42
2018-12-21T05:47:35.475Z,8.37
2018-12-21T05:50:04.043Z,8.38
2018-12-21T05:52:32.433Z,8.41
2018-12-21T05:55:00.835Z,8.40
2018-12-21T05:57:29.256Z,8.40
2018-12-21T05:59:57.651Z,8.43
2018-12-21T06:02:26.065Z,8.45
2018-12-21T06:04:55.635Z,8.50
2018-12-21T06:07:24.091Z,8.59
2018-12-21T06:09:52.460Z,8.59
2018-12-21T06:12:20.954Z,8.59
2018-12-21T06:14:49.393Z,8.59
2018-12-21T06:17:17.811Z,8.60
2018-12-21T06:19:46.211Z,8.63
2018-12-21T06:22:14.735Z,8.64
2018-12-21T06:24:43.148Z,8.62
2018-12-21T06:27:11.547Z,8.61
2018-12-21T06:29:39.952Z,8.67
2018-12-21T06:32:08.343Z,8.68
2018-12-21T06:34:36.760Z,8.74
2018-12-21T06:37:05.159Z,8.71
2018-12-21T06:39:33.616Z,8.78
2018-12-21T06:42:02.089Z,8.74
2018-12-21T06:44:30.548Z,8.78
2018-12-21T06:46:58.956Z,8.85
2018-12-21T06:49:27.360Z,8.92
2018-12-21T06:51:55.794Z,9.02
2018-12-21T06:54:24.418Z,8.98
2018-12-21T06:56:53.106Z,8.95
2018-12-21T06:59:21.502Z,9.00
2018-12-21T07:01:49.892Z,8.90
2018-12-21T07:04:18.303Z,8.87
2018-12-21T07:06:46.695Z,8.82
2018-12-21T07:09:15.132Z,8.80
2018-12-21T07:11:43.524Z,8.84
2018-12-21T07:14:11.923Z,8.82
2018-12-21T07:16:40.349Z,8.82
2018-12-21T07:19:08.773Z,8.85
2018-12-21T07:21:37.186Z,8.87
2018-12-21T07:24:05.670Z,8.80
2018-12-21T07:26:34.164Z,8.73
2018-12-21T07:29:03.190Z,8.82
2018-12-21T07:31:31.615Z,8.82
2018-12-21T07:34:00.060Z,8.82
2018-12-21T07:36:28.803Z,8.86
2018-12-21T07:38:57.325Z,8.86
2018-12-21T07:41:26.376Z,8.76
2018-12-21T07:43:55.043Z,8.83
2018-12-21T07:46:23.900Z,8.87
2018-12-21T07:48:52.494Z,8.86
2018-12-21T07:51:21.299Z,8.88
2018-12-21T07:53:50.911Z,8.93
2018-12-21T07:56:19.307Z,8.95
2018-12-21T07:58:56.933Z,8.95
2018-12-21T08:01:18.932Z,9.01
2018-12-21T08:03:47.461Z,9.03
2018-12-21T08:06:15.980Z,8.88
2018-12-21T08:08:44.455Z,8.86
2018-12-21T08:11:12.877Z,8.89
2018-12-21T08:13:41.902Z,8.87
2018-12-21T08:16:10.338Z,8.91
2018-12-21T08:18:39.179Z,8.94
2018-12-21T08:21:07.651Z,9.02
2018-12-21T08:23:44.104Z,8.98
2018-12-21T08:26:06.949Z,9.32
2018-12-21T08:28:35.355Z,9.31
2018-12-21T08:31:03.951Z,9.39
2018-12-21T08:33:33.335Z,9.51
2018-12-21T08:36:02.443Z,9.40
2018-12-21T08:38:30.978Z,9.47
2018-12-21T08:40:59.563Z,9.48
2018-12-21T08:43:28.501Z,9.47
2018-12-21T08:45:57.641Z,9.52
2018-12-21T08:48:26.111Z,9.49
2018-12-21T08:50:54.608Z,9.54
2018-12-21T08:53:23.020Z,9.59
2018-12-21T08:55:51.435Z,9.63
2018-12-21T08:58:20.100Z,9.62
2018-12-21T09:00:48.667Z,9.68
2018-12-21T09:03:18.012Z,9.71
2018-12-21T09:05:46.516Z,9.78
2018-12-21T09:08:14.995Z,9.80
2018-12-21T09:10:43.407Z,9.94
2018-12-21T09:13:11.807Z,9.94
2018-12-21T09:15:40.258Z,10.08
2018-12-21T09:18:08.692Z,10.11
2018-12-21T09:20:37.099Z,10.39
2018-12-21T09:23:05.548Z,10.46
2018-12-21T09:25:33.991Z,10.50
2018-12-21T09:28:02.393Z,10.47
2018-12-21T09:30:30.797Z,10.65
2018-12-21T09:32:59.183Z,10.71
2018-12-21T09:35:27.594Z,10.79
2018-12-21T09:37:56.003Z,10.93
2018-12-21T09:40:24.438Z,11.04
2018-12-21T09:42:53.522Z,11.20
2018-12-21T09:45:22.064Z,11.27
2018-12-21T09:47:50.476Z,11.28
2018-12-21T09:50:18.865Z,11.51
2018-12-21T09:52:47.384Z,11.57
2018-12-21T09:55:15.759Z,11.72
2018-12-21T09:57:44.194Z,11.83
2018-12-21T10:00:12.878Z,11.98
2018-12-21T10:02:41.918Z,12.16
2018-12-21T10:05:14.535Z,12.16
2018-12-21T10:07:43.240Z,12.20
2018-12-21T10:10:11.673Z,12.29
2018-12-21T10:12:40.137Z,12.31
2018-12-21T10:15:10.001Z,12.36
2018-12-21T10:17:38.465Z,12.37
2018-12-21T10:20:08.758Z,12.46
2018-12-21T10:22:37.220Z,12.58
2018-12-21T10:25:06.661Z,12.58
2018-12-21T10:27:35.144Z,12.63
2018-12-21T10:30:04.721Z,12.68
2018-12-21T10:32:33.116Z,12.67
2018-12-21T10:35:01.498Z,12.64
2018-12-21T10:37:29.896Z,12.69
2018-12-21T10:39:58.275Z,12.72
2018-12-21T10:42:26.943Z,12.77
2018-12-21T10:44:55.503Z,12.75
2018-12-21T10:47:23.919Z,12.78
2018-12-21T10:49:52.339Z,12.80
2018-12-21T10:52:20.911Z,12.85
2018-12-21T10:54:49.282Z,12.80
2018-12-21T10:57:17.691Z,12.87
2018-12-21T10:59:46.094Z,12.90
2018-12-21T11:02:14.496Z,12.90
2018-12-21T11:04:42.876Z,12.90
2018-12-21T11:07:11.273Z,12.93
2018-12-21T11:09:39.692Z,12.98
2018-12-21T11:12:08.105Z,13.08
2018-12-21T11:14:36.512Z,13.16
2018-12-21T11:17:04.944Z,13.22
2018-12-21T11:19:33.322Z,13.32
2018-12-21T11:22:01.751Z,13.38
2018-12-21T11:24:35.423Z,13.54
2018-12-21T11:27:00.693Z,13.62
2018-12-21T11:29:29.111Z,13.61
2018-12-21T11:31:57.498Z,13.62
2018-12-21T11:34:25.927Z,13.65
2018-12-21T11:36:54.328Z,13.66
2018-12-21T11:39:22.745Z,13.73
2018-12-21T11:41:51.151Z,13.72
2018-12-21T11:44:19.604Z,13.77
2018-12-21T11:46:47.983Z,13.79
2018-12-21T11:49:16.411Z,13.87
2018-12-21T11:51:44.793Z,13.93
2018-12-21T11:54:13.302Z,13.97
2018-12-21T11:56:41.750Z,14.06
2018-12-21T11:59:10.192Z,14.10
2018-12-21T12:01:38.699Z,14.20
2018-12-21T12:04:07.110Z,14.28
2018-12-21T12:06:37.556Z,14.45
2018-12-21T12:09:07.759Z,14.43
2018-12-21T12:11:36.165Z,14.46
2018-12-21T12:14:04.585Z,14.48
2018-12-21T12:16:33.012Z,14.53
2018-12-21T12:19:01.448Z,14.58
2018-12-21T12:21:30.603Z,14.68
2018-12-21T12:24:00.172Z,14.67
2018-12-21T12:26:34.279Z,14.75
2018-12-21T12:29:02.851Z,14.80
2018-12-21T12:31:31.395Z,14.89
2018-12-21T12:33:59.950Z,14.99
2018-12-21T12:36:28.308Z,15.02
2018-12-21T12:38:56.712Z,15.02
2018-12-21T12:41:25.138Z,15.10
2018-12-21T12:43:53.549Z,15.06
2018-12-21T12:46:21.966Z,15.08
2018-12-21T12:48:50.382Z,15.21
2018-12-21T12:51:18.781Z,15.21
2018-12-21T12:53:47.276Z,15.15
2018-12-21T12:56:15.786Z,15.15
2018-12-21T12:58:44.181Z,15.18
2018-12-21T13:01:12.732Z,15.21
2018-12-21T13:03:41.304Z,15.21
2018-12-21T13:06:09.747Z,15.17
2018-12-21T13:08:38.977Z,15.18
2018-12-21T13:11:07.548Z,15.13
2018-12-21T13:13:35.958Z,15.04
2018-12-21T13:16:04.479Z,15.11
2018-12-21T13:18:32.880Z,15.07
2018-12-21T13:21:01.279Z,15.04
2018-12-21T13:23:29.869Z,15.06
2018-12-21T13:25:58.970Z,15.07
2018-12-21T13:28:28.147Z,15.10
2018-12-21T13:30:56.804Z,15.03
2018-12-21T13:33:25.500Z,14.98
2018-12-21T13:35:54.631Z,14.93
2018-12-21T13:38:23.187Z,14.94
2018-12-21T13:40:51.770Z,14.89
2018-12-21T13:43:20.172Z,14.86
2018-12-21T13:45:48.588Z,14.84
2018-12-21T13:48:16.957Z,14.83
2018-12-21T13:50:45.508Z,14.76
2018-12-21T13:53:14.927Z,14.74
2018-12-21T13:55:43.337Z,14.82
2018-12-21T13:58:11.727Z,14.77
2018-12-21T14:00:40.128Z,14.73
2018-12-21T14:03:08.515Z,14.71
2018-12-21T14:05:36.919Z,14.74
2018-12-21T14:08:05.316Z,14.77
2018-12-21T14:10:33.852Z,14.69
2018-12-21T14:13:02.537Z,14.65
2018-12-21T14:15:31.277Z,14.55
2018-12-21T14:17:59.928Z,14.48
2018-12-21T14:20:28.331Z,14.53
2018-12-21T14:22:56.703Z,14.42
2018-12-21T14:25:29.090Z,14.44
2018-12-21T14:27:55.476Z,14.40
2018-12-21T14:30:23.870Z,14.37
2018-12-21T14:32:52.393Z,14.46
2018-12-21T14:35:20.776Z,14.46
2018-12-21T14:37:49.150Z,14.45
2018-12-21T14:40:17.675Z,14.42
2018-12-21T14:42:46.076Z,14.35
2018-12-21T14:45:14.497Z,14.41
2018-12-21T14:47:42.902Z,14.33
2018-12-21T14:50:11.905Z,14.35
2018-12-21T14:52:40.611Z,14.24
2018-12-21T14:55:09.444Z,14.19
2018-12-21T14:57:38.878Z,14.22
2018-12-21T15:00:11.585Z,14.16
2018-12-21T15:02:41.596Z,14.12
2018-12-21T15:05:10.610Z,14.15
2018-12-21T15:07:43.630Z,14.09
2018-12-21T15:10:12.119Z,14.02
2018-12-21T15:12:40.672Z,13.97
2018-12-21T15:15:09.512Z,13.88
2018-12-21T15:17:37.940Z,13.87
2018-12-21T15:20:09.722Z,13.71
2018-12-21T15:22:38.179Z,13.63
2018-12-21T15:25:07.715Z,13.64
2018-12-21T15:27:36.223Z,13.56
2018-12-21T15:30:06.595Z,13.56
2018-12-21T15:32:35.001Z,13.51
2018-12-21T15:35:03.623Z,13.37
2018-12-21T15:37:32.007Z,13.41
2018-12-21T15:40:00.419Z,13.42
2018-12-21T15:42:33.530Z,13.50
2018-12-21T15:45:02.039Z,13.51
2018-12-21T15:47:30.989Z,13.42
2018-12-21T15:49:59.578Z,13.29
2018-12-21T15:52:28.053Z,13.32
2018-12-21T15:54:56.429Z,13.30
2018-12-21T15:57:24.820Z,13.37
2018-12-21T16:00:03.860Z,13.41
2018-12-21T16:02:32.423Z,13.51
2018-12-21T16:05:00.992Z,13.38
2018-12-21T16:07:29.414Z,13.36
2018-12-21T16:09:57.788Z,13.40
2018-12-21T16:12:26.207Z,13.35
2018-12-21T16:14:54.575Z,13.29
2018-12-21T16:17:22.980Z,13.34
2018-12-21T16:19:51.347Z,13.31
2018-12-21T16:22:19.742Z,13.31
2018-12-21T16:24:48.128Z,13.37
2018-12-21T16:27:16.535Z,13.32
2018-12-21T16:29:50.220Z,13.27
2018-12-21T16:32:18.603Z,13.26
2018-12-21T16:34:47.041Z,13.27
2018-12-21T16:37:15.429Z,13.30
2018-12-21T16:39:43.855Z,13.21
2018-12-21T16:42:12.259Z,13.20
2018-12-21T16:44:40.655Z,13.14
2018-12-21T16:47:09.116Z,12.98
2018-12-21T16:49:37.525Z,12.86
2018-12-21T16:52:05.919Z,12.89
2018-12-21T16:54:34.315Z,12.92
2018-12-21T16:57:02.673Z,12.94
2018-12-21T16:59:31.079Z,12.92
2018-12-21T17:01:59.507Z,12.83
2018-12-21T17:04:27.932Z,12.80
2018-12-21T17:06:56.343Z,12.76
2018-12-21T17:09:24.855Z,12.83
2018-12-21T17:11:53.260Z,12.81
2018-12-21T17:14:21.685Z,12.83
2018-12-21T17:16:50.792Z,12.82
2018-12-21T17:19:20.965Z,12.75
2018-12-21T17:21:49.427Z,12.72
2018-12-21T17:24:17.821Z,12.79
2018-12-21T17:26:48.776Z,12.74
2018-12-21T17:29:17.182Z,12.69
2018-12-21T17:31:45.583Z,12.65
2018-12-21T17:34:14.904Z,12.62
2018-12-21T17:36:43.288Z,12.56
2018-12-21T17:39:11.685Z,12.49
2018-12-21T17:41:49.115Z,12.54
2018-12-21T17:44:35.732Z,12.60
2018-12-21T17:47:04.247Z,12.69
2018-12-21T17:49:32.907Z,12.63
2018-12-21T17:52:01.796Z,12.69
2018-12-21T17:54:30.437Z,12.67
2018-12-21T17:56:58.962Z,12.62
2018-12-21T17:59:27.471Z,12.77
2018-12-21T18:01:55.935Z,12.68
2018-12-21T18:04:28.015Z,12.68
2018-12-21T18:06:56.414Z,12.63
2018-12-21T18:09:27.332Z,12.62
2018-12-21T18:11:57.294Z,12.59
2018-12-21T18:14:27.106Z,12.50
2018-12-21T18:16:56.102Z,12.36
2018-12-21T18:19:24.534Z,12.36
2018-12-21T18:21:59.720Z,12.40
2018-12-21T18:24:29.427Z,12.41
2018-12-21T18:27:09.802Z,12.36
2018-12-21T18:29:40.232Z,12.41
2018-12-21T18:32:25.231Z,12.42
2018-12-21T18:34:53.636Z,12.39
2018-12-21T18:37:22.023Z,12.34
2018-12-21T18:39:50.464Z,12.32
2018-12-21T18:42:18.850Z,12.31
2018-12-21T18:45:03.907Z,12.26
2018-12-21T18:47:32.323Z,12.29
2018-12-21T18:50:00.757Z,12.26
2018-12-21T18:52:29.212Z,12.25
2018-12-21T18:54:57.685Z,12.21
2018-12-21T18:57:26.086Z,12.33
2018-12-21T18:59:54.506Z,12.34
2018-12-21T19:02:22.899Z,12.30
2018-12-21T19:04:51.419Z,12.30
2018-12-21T19:07:22.042Z,12.29
2018-12-21T19:09:50.338Z,12.35
2018-12-21T19:12:18.747Z,12.35
2018-12-21T19:14:47.391Z,12.42
2018-12-21T19:17:15.819Z,12.42
2018-12-21T19:19:44.223Z,12.51
2018-12-21T19:22:12.636Z,12.53
2018-12-21T19:24:40.995Z,12.48
2018-12-21T19:27:09.432Z,12.41
2018-12-21T19:29:37.855Z,12.43
2018-12-21T19:32:06.372Z,12.43
2018-12-21T19:34:34.833Z,12.47
2018-12-21T19:37:03.368Z,12.44
2018-12-21T19:39:31.879Z,12.48
2018-12-21T19:42:00.284Z,12.43
2018-12-21T19:44:28.736Z,12.42
2018-12-21T19:46:57.255Z,12.43
2018-12-21T19:49:25.671Z,12.42
2018-12-21T19:51:54.118Z,12.40
2018-12-21T19:54:23.294Z,12.40
2018-12-21T19:57:15.179Z,12.48
2018-12-21T19:59:43.544Z,12.37
2018-12-21T20:02:11.976Z,12.37
2018-12-21T20:04:41.173Z,12.45
2018-12-21T20:07:09.599Z,12.41
2018-12-21T20:09:37.976Z,12.41
2018-12-21T20:12:07.164Z,12.34
2018-12-21T20:14:45.008Z,12.27
2018-12-21T20:17:13.475Z,12.21
2018-12-21T20:19:41.860Z,12.15
2018-12-21T20:22:10.560Z,12.18
2018-12-21T20:24:40.240Z,12.12
2018-12-21T20:27:13.893Z,12.09
2018-12-21T20:32:35.573Z,12.11
2018-12-21T20:35:04.353Z,12.11
2018-12-21T20:37:32.789Z,12.10
2018-12-21T20:40:01.252Z,12.06
2018-12-21T20:42:35.293Z,11.98
2018-12-21T20:45:03.985Z,11.96
2018-12-21T20:47:32.462Z,12.00
2018-12-21T20:50:00.999Z,11.99
2018-12-21T20:52:29.418Z,12.01
2018-12-21T20:54:57.883Z,12.04
2018-12-21T20:57:28.332Z,11.98
2018-12-21T20:59:56.731Z,11.93
2018-12-21T21:02:25.215Z,11.96
2018-12-21T21:04:53.784Z,11.90
2018-12-21T21:07:22.160Z,11.87
2018-12-21T21:09:50.595Z,11.81
2018-12-21T21:12:32.591Z,11.74
2018-12-21T21:15:00.998Z,11.95
2018-12-21T21:17:29.437Z,11.90
2018-12-21T21:19:57.835Z,11.85
2018-12-21T21:22:26.230Z,11.74
2018-12-21T21:24:54.640Z,11.66
2018-12-21T21:27:30.169Z,11.69
2018-12-21T21:29:53.530Z,11.57
2018-12-21T21:32:21.912Z,11.56
2018-12-21T21:34:50.419Z,11.59
2018-12-21T21:37:19.884Z,11.58
2018-12-21T21:39:48.383Z,11.62
2018-12-21T21:42:16.880Z,11.54
2018-12-21T21:44:45.286Z,11.51
2018-12-21T21:47:13.904Z,11.49
2018-12-21T21:49:42.331Z,11.42
2018-12-21T21:52:10.733Z,11.34
2018-12-21T21:54:39.153Z,11.30
2018-12-21T21:57:07.623Z,11.23
2018-12-21T21:59:36.052Z,11.19
2018-12-21T22:02:04.556Z,11.26
2018-12-21T22:04:33.235Z,11.16
2018-12-21T22:07:02.667Z,11.18
2018-12-21T22:09:31.056Z,11.16
2018-12-21T22:12:00.204Z,11.12
2018-12-21T22:14:28.840Z,11.10
2018-12-21T22:16:57.283Z,11.03
2018-12-21T22:19:25.712Z,10.94
2018-12-21T22:21:54.304Z,10.97
2018-12-21T22:24:22.788Z,11.00
2018-12-21T22:26:51.196Z,10.89
2018-12-21T22:29:19.644Z,10.87
2018-12-21T22:31:48.074Z,11.03
2018-12-21T22:34:16.608Z,11.04
2018-12-21T22:36:45.092Z,11.04
2018-12-21T22:39:13.496Z,11.03
2018-12-21T22:41:41.927Z,10.98
2018-12-21T22:44:10.331Z,11.03
2018-12-21T22:46:38.775Z,11.05
2018-12-21T22:49:07.156Z,11.04
2018-12-21T22:51:35.555Z,10.98
2018-12-21T22:54:03.982Z,10.94
2018-12-21T22:56:32.441Z,10.94
2018-12-21T22:59:00.812Z,10.99
2018-12-21T23:01:29.404Z,11.06
2018-12-21T23:03:57.828Z,11.01
2018-12-21T23:06:26.244Z,11.00
2018-12-21T23:08:54.757Z,11.00
2018-12-21T23:11:23.196Z,11.03
2018-12-21T23:13:52.392Z,11.01
2018-12-21T23:16:21.751Z,11.00
2018-12-21T23:18:50.210Z,10.96
2018-12-21T23:21:18.617Z,10.90
2018-12-21T23:23:47.003Z,10.87
2018-12-21T23:26:15.398Z,10.80
2018-12-21T23:28:43.837Z,10.85
2018-12-21T23:31:12.242Z,10.80
2018-12-21T23:33:40.623Z,11.01
2018-12-21T23:36:09.076Z,11.02
2018-12-21T23:38:37.537Z,10.95
2018-12-21T23:41:05.983Z,10.89
2018-12-21T23:43:34.522Z,10.91
2018-12-21T23:46:03.024Z,10.89
2018-12-21T23:48:31.397Z,10.87
2018-12-21T23:50:59.948Z,10.92
2018-12-21T23:53:28.438Z,10.88
2018-12-21T23:55:57.052Z,10.80
2018-12-21T23:58:25.559Z,10.76
